Terminal Aerodrome Forecast
Issued by NWS

Home | Current Version | Previous Version | Text Only | Print | Product List | Glossary On
Versions: 1 2 3 4 5 6 7 8 9 10 11 12
000
FTUS44 KEPZ 012323
TAFTCS
TAF
KTCS 012323Z 0200/0224 02014G24KT P6SM VCSH BKN070
     FM020400 03013G20KT P6SM SCT070
     FM020700 04007KT P6SM FEW070
     FM021800 14006KT P6SM FEW120=

USA.gov is the U.S. government's official web portal to all federal, state and local government web resources and services.